Time;durP1;ratioP1;P1;durP2;ratioP2;P2;SDS_P1;SDS_P2;PMS_P1;PMS_P2;Temp;Humidity;BMP_temperature;BMP_pressure;BME280_temperature;BME280_humidity;BME280_pressure;Samples;Min_cycle;Max_cycle;Signal;HPM_P1;HPM_P2
2022/06/12 00:00:25;;;;;;;2.25;1.70;;;16.60;99.90;;;;;;4950162;28;20047;-85
2022/06/12 00:02:51;;;;;;;3.85;1.50;;;16.70;99.90;;;;;;4937901;28;20027;-85
2022/06/12 00:05:33;;;;;;;2.63;1.48;;;16.60;99.90;;;;;;4943473;28;20059;-85
2022/06/12 00:07:59;;;;;;;2.47;1.58;;;16.60;99.90;;;;;;4968927;28;20030;-85
2022/06/12 00:10:24;;;;;;;1.42;1.30;;;16.60;99.90;;;;;;4957287;28;20028;-85
2022/06/12 00:13:05;;;;;;;1.52;1.38;;;16.60;99.90;;;;;;4955160;29;20365;-85
2022/06/12 00:15:31;;;;;;;1.40;1.30;;;16.60;99.90;;;;;;4957670;28;20054;-84
2022/06/12 00:18:06;;;;;;;1.23;1.13;;;16.60;99.90;;;;;;4945481;28;20102;-84
2022/06/12 00:20:43;;;;;;;1.48;1.33;;;16.60;99.90;;;;;;4933001;29;20052;-85
2022/06/12 00:23:12;;;;;;;1.20;1.20;;;16.50;99.90;;;;;;4946098;28;20086;-84
2022/06/12 00:25:38;;;;;;;1.70;1.30;;;16.50;99.90;;;;;;4950879;28;20529;-85
2022/06/12 00:28:26;;;;;;;1.48;1.23;;;16.50;99.90;;;;;;4954318;28;20030;-85
2022/06/12 00:30:52;;;;;;;1.42;1.30;;;16.50;99.90;;;;;;4933863;29;20074;-84
2022/06/12 00:33:17;;;;;;;1.90;1.80;;;16.50;99.90;;;;;;4931294;29;20027;-84
2022/06/12 00:35:44;;;;;;;2.58;1.90;;;16.40;99.90;;;;;;4930452;29;20032;-84
2022/06/12 00:38:10;;;;;;;1.52;1.42;;;16.40;99.90;;;;;;4941632;28;20078;-84
2022/06/12 00:40:35;;;;;;;1.80;1.67;;;16.40;99.90;;;;;;4954947;29;20031;-84
2022/06/12 00:43:03;;;;;;;4.57;1.40;;;16.40;99.90;;;;;;4955020;29;20082;-85
2022/06/12 00:45:53;;;;;;;2.38;1.20;;;16.30;99.90;;;;;;4950424;28;20133;-85
2022/06/12 00:48:47;;;;;;;1.27;1.17;;;16.30;99.90;;;;;;4958727;28;20545;-84
2022/06/12 00:51:19;;;;;;;1.23;1.23;;;16.30;99.90;;;;;;4935639;29;20032;-85
2022/06/12 00:53:52;;;;;;;1.80;1.70;;;16.30;99.90;;;;;;4946596;28;20024;-83
2022/06/12 00:56:24;;;;;;;1.63;1.20;;;16.40;99.90;;;;;;4942785;29;20061;-84
2022/06/12 00:58:59;;;;;;;1.75;1.65;;;16.40;99.90;;;;;;4938652;29;20038;-84
2022/06/12 01:01:49;;;;;;;2.57;1.60;;;16.40;99.90;;;;;;4921785;28;20067;-84
2022/06/12 01:07:05;;;;;;;1.73;1.63;;;16.50;99.90;;;;;;4951368;29;20071;-84
2022/06/12 01:09:49;;;;;;;1.60;1.25;;;16.50;99.90;;;;;;4937411;29;20077;-84
2022/06/12 01:12:19;;;;;;;1.63;1.23;;;16.50;99.90;;;;;;4954283;28;20019;-83
2022/06/12 01:14:49;;;;;;;1.88;1.77;;;16.60;99.90;;;;;;4954795;29;20027;-84
2022/06/12 01:17:24;;;;;;;4.80;1.85;;;16.50;99.90;;;;;;4954001;28;20028;-83
2022/06/12 01:19:53;;;;;;;1.90;1.80;;;16.60;99.90;;;;;;4955826;28;20048;-83
2022/06/12 01:22:47;;;;;;;2.60;1.90;;;16.60;99.90;;;;;;4961074;28;20050;-84
2022/06/12 01:25:50;;;;;;;2.75;1.80;;;16.60;99.90;;;;;;4971566;28;20030;-83
2022/06/12 01:28:51;;;;;;;2.55;1.70;;;16.60;99.90;;;;;;4961848;28;20542;-84
2022/06/12 01:31:50;;;;;;;3.28;1.73;;;16.60;99.90;;;;;;4944240;29;20082;-83
2022/06/12 01:34:46;;;;;;;1.67;1.58;;;16.70;99.90;;;;;;4977591;28;20081;-83
2022/06/12 01:37:44;;;;;;;2.05;1.60;;;16.70;99.90;;;;;;4963013;28;20035;-83
2022/06/12 01:40:16;;;;;;;2.20;1.63;;;16.70;99.90;;;;;;4938988;29;20043;-84
2022/06/12 01:46:18;;;;;;;3.05;1.95;;;16.60;99.90;;;;;;4956150;29;20102;-84
2022/06/12 01:49:00;;;;;;;2.47;1.85;;;16.60;99.90;;;;;;4951501;29;20062;-84
2022/06/12 01:51:32;;;;;;;2.10;1.58;;;16.60;99.90;;;;;;4959539;28;20048;-84
2022/06/12 01:54:29;;;;;;;4.28;1.52;;;16.70;99.90;;;;;;4941264;28;20086;-84
2022/06/12 01:57:14;;;;;;;5.22;2.15;;;16.70;99.90;;;;;;4942300;29;20036;-84
2022/06/12 02:00:06;;;;;;;1.43;1.30;;;16.70;99.90;;;;;;4954997;28;20030;-83
2022/06/12 02:02:49;;;;;;;8.90;1.80;;;16.80;99.90;;;;;;4963359;28;20127;-85
2022/06/12 02:05:30;;;;;;;2.35;1.98;;;16.90;99.90;;;;;;4939742;29;20041;-85
2022/06/12 02:15:31;;;;;;;3.95;1.95;;;17.00;99.90;;;;;;4916675;29;20123;-84
2022/06/12 02:18:06;;;;;;;4.07;2.08;;;17.00;99.90;;;;;;4889230;29;20043;-84
2022/06/12 02:20:36;;;;;;;3.58;2.22;;;17.00;99.90;;;;;;4950786;28;20046;-84
2022/06/12 02:23:19;;;;;;;3.17;2.03;;;17.10;99.90;;;;;;4962783;28;20030;-85
2022/06/12 02:25:48;;;;;;;2.25;1.90;;;17.10;99.90;;;;;;4959610;28;20027;-84
2022/06/12 02:28:20;;;;;;;1.83;1.65;;;17.10;99.90;;;;;;4960608;28;20387;-84
2022/06/12 02:30:55;;;;;;;1.60;1.50;;;17.10;99.90;;;;;;4964277;28;20482;-84
2022/06/12 02:33:27;;;;;;;2.40;1.70;;;17.10;99.90;;;;;;4939887;28;20126;-84
2022/06/12 02:36:21;;;;;;;2.15;1.83;;;17.10;99.90;;;;;;4956373;29;20302;-84
2022/06/12 02:38:56;;;;;;;1.90;1.70;;;17.20;99.90;;;;;;4958299;28;20035;-84
2022/06/12 02:42:04;;;;;;;2.88;1.60;;;17.10;99.90;;;;;;4960763;28;20034;-84
2022/06/12 02:44:42;;;;;;;2.50;1.73;;;17.10;99.90;;;;;;4939612;28;20444;-85
2022/06/12 02:47:20;;;;;;;3.78;1.60;;;17.00;99.90;;;;;;4942130;29;20019;-84
2022/06/12 02:49:48;;;;;;;3.03;1.50;;;17.00;99.90;;;;;;4956307;28;20062;-85
2022/06/12 02:52:46;;;;;;;4.82;2.03;;;16.90;99.90;;;;;;4956749;29;20423;-85
2022/06/12 02:55:47;;;;;;;3.10;1.75;;;16.90;99.90;;;;;;4941586;29;20086;-84
2022/06/12 02:58:42;;;;;;;2.25;1.75;;;16.80;99.90;;;;;;4960540;28;20027;-84
2022/06/12 03:01:32;;;;;;;2.60;1.60;;;16.80;99.90;;;;;;4950579;28;20047;-85
2022/06/12 03:04:16;;;;;;;2.88;2.03;;;16.80;99.90;;;;;;4938097;29;20039;-85
2022/06/12 03:06:43;;;;;;;3.03;1.83;;;16.80;99.90;;;;;;4938575;28;20055;-84
2022/06/12 03:09:25;;;;;;;3.20;2.35;;;16.70;99.90;;;;;;4959146;28;20510;-85
2022/06/12 03:11:54;;;;;;;4.68;2.10;;;16.70;99.90;;;;;;4935184;28;20043;-84
2022/06/12 03:14:22;;;;;;;3.00;2.35;;;16.80;99.90;;;;;;4975959;28;20026;-85
2022/06/12 03:17:16;;;;;;;3.42;2.22;;;16.80;99.90;;;;;;4956527;28;20047;-85
2022/06/12 03:19:47;;;;;;;3.72;2.38;;;16.80;99.90;;;;;;4938877;28;20106;-84
2022/06/12 03:22:37;;;;;;;4.53;2.53;;;16.80;99.90;;;;;;4955934;28;20035;-85
2022/06/12 03:25:09;;;;;;;4.18;1.83;;;16.70;99.90;;;;;;4921060;28;20032;-85
2022/06/12 03:27:37;;;;;;;10.93;2.60;;;16.70;99.90;;;;;;4966527;28;20032;-83
2022/06/12 03:30:43;;;;;;;9.77;2.75;;;16.70;99.90;;;;;;4938429;28;20024;-83
2022/06/12 03:33:27;;;;;;;6.70;2.38;;;16.80;99.90;;;;;;4909723;28;20031;-83
2022/06/12 03:35:59;;;;;;;13.23;4.45;;;16.80;99.90;;;;;;4967229;28;20447;-83
2022/06/12 03:38:52;;;;;;;11.70;3.00;;;16.80;99.90;;;;;;4955840;29;20024;-84
2022/06/12 03:41:39;;;;;;;11.65;3.72;;;16.70;99.90;;;;;;4946586;28;20067;-83
2022/06/12 03:44:20;;;;;;;10.90;3.90;;;16.60;99.90;;;;;;4950612;28;20028;-84
2022/06/12 03:47:29;;;;;;;16.95;5.72;;;16.50;99.90;;;;;;4934335;29;20031;-83
2022/06/12 03:50:06;;;;;;;16.45;5.07;;;16.40;99.90;;;;;;4952965;28;20099;-83
2022/06/12 03:52:56;;;;;;;15.07;4.70;;;16.40;99.90;;;;;;4955765;28;20031;-82
2022/06/12 03:58:30;;;;;;;14.45;3.50;;;16.20;99.90;;;;;;4951078;29;20110;-82
2022/06/12 04:00:58;;;;;;;9.57;3.20;;;16.20;99.90;;;;;;4951823;28;20086;-82
2022/06/12 04:03:35;;;;;;;13.35;3.65;;;16.20;99.90;;;;;;4964878;28;20058;-82
2022/06/12 04:06:04;;;;;;;7.47;3.15;;;16.20;99.90;;;;;;4956753;28;20043;-82
2022/06/12 04:09:00;;;;;;;7.07;3.33;;;16.20;99.90;;;;;;4955498;29;20474;-83
2022/06/12 04:11:28;;;;;;;10.38;4.38;;;16.30;99.90;;;;;;4949825;28;20033;-83
2022/06/12 04:13:54;;;;;;;12.00;3.75;;;16.20;99.90;;;;;;4939329;29;20038;-83
2022/06/12 04:16:49;;;;;;;17.77;4.85;;;16.30;99.90;;;;;;4955483;29;20027;-83
2022/06/12 04:19:18;;;;;;;19.92;4.70;;;16.30;99.90;;;;;;4963943;28;20054;-83
2022/06/12 04:21:52;;;;;;;20.88;3.95;;;16.30;99.90;;;;;;4949418;28;20063;-83
2022/06/12 04:24:46;;;;;;;12.10;3.75;;;16.30;99.90;;;;;;4935951;29;20394;-83
2022/06/12 04:27:25;;;;;;;17.65;4.30;;;16.20;99.90;;;;;;4923546;29;20114;-83
2022/06/12 04:29:55;;;;;;;17.13;4.40;;;16.30;99.90;;;;;;4950335;28;20109;-83
2022/06/12 04:32:21;;;;;;;14.25;4.15;;;16.30;99.90;;;;;;4969838;28;20090;-83
2022/06/12 04:34:47;;;;;;;18.27;4.82;;;16.30;99.90;;;;;;4965557;28;20467;-83
2022/06/12 04:37:25;;;;;;;15.65;4.50;;;16.30;99.90;;;;;;4970114;28;20360;-83
2022/06/12 04:39:59;;;;;;;14.82;5.15;;;16.30;99.90;;;;;;4960860;28;20023;-83
2022/06/12 04:42:26;;;;;;;13.57;4.45;;;16.30;99.90;;;;;;4954114;28;20065;-83
2022/06/12 04:44:53;;;;;;;12.35;3.60;;;16.30;99.90;;;;;;4960403;28;20042;-83
2022/06/12 04:47:22;;;;;;;13.98;3.80;;;16.30;99.90;;;;;;4955546;28;20053;-83
2022/06/12 04:49:49;;;;;;;21.33;5.75;;;16.30;99.90;;;;;;4940677;29;20051;-83
2022/06/12 04:52:15;;;;;;;10.40;3.35;;;16.30;99.90;;;;;;4971619;28;20034;-83
2022/06/12 04:54:45;;;;;;;8.32;2.65;;;16.30;99.90;;;;;;4955652;28;20023;-83
2022/06/12 04:57:12;;;;;;;9.90;3.05;;;16.30;99.90;;;;;;4937469;29;20027;-83
2022/06/12 04:59:38;;;;;;;14.18;4.15;;;16.30;99.90;;;;;;4950291;29;20032;-83
2022/06/12 05:02:05;;;;;;;12.35;3.67;;;16.40;99.90;;;;;;4954088;29;20043;-83
2022/06/12 05:04:32;;;;;;;10.63;3.47;;;16.30;99.90;;;;;;4948660;29;20118;-83
2022/06/12 05:06:58;;;;;;;18.40;3.83;;;16.40;99.90;;;;;;4946300;28;20015;-82
2022/06/12 05:09:27;;;;;;;14.65;4.03;;;16.40;99.90;;;;;;4954322;28;20468;-83
2022/06/12 05:11:53;;;;;;;15.88;3.85;;;16.50;99.90;;;;;;4954270;29;20026;-83
2022/06/12 05:14:19;;;;;;;12.38;3.60;;;16.50;99.90;;;;;;4951097;29;20035;-83
2022/06/12 05:16:50;;;;;;;10.27;3.00;;;16.50;99.90;;;;;;4935750;29;20028;-83
2022/06/12 05:19:35;;;;;;;14.65;4.50;;;16.50;99.90;;;;;;4953331;29;20403;-83
2022/06/12 05:22:02;;;;;;;12.45;3.38;;;16.50;99.90;;;;;;4928367;29;20118;-83
2022/06/12 05:24:29;;;;;;;13.95;3.67;;;16.50;99.90;;;;;;4951664;29;20031;-83
2022/06/12 05:26:56;;;;;;;15.23;4.35;;;16.50;99.90;;;;;;4941381;29;20020;-83
2022/06/12 05:29:25;;;;;;;14.30;3.45;;;16.50;99.90;;;;;;4953703;28;20368;-83
2022/06/12 05:31:52;;;;;;;19.05;4.35;;;16.60;99.90;;;;;;4953259;28;20027;-84
2022/06/12 05:34:18;;;;;;;13.40;3.30;;;16.60;99.90;;;;;;4968245;28;20035;-84
2022/06/12 05:36:47;;;;;;;19.60;4.78;;;16.70;99.90;;;;;;4944306;29;20031;-84
2022/06/12 05:39:14;;;;;;;13.38;4.03;;;16.80;99.90;;;;;;4936035;29;20496;-84
2022/06/12 05:41:39;;;;;;;17.83;3.83;;;16.80;99.90;;;;;;4959888;28;20146;-84
2022/06/12 05:44:15;;;;;;;16.92;4.72;;;16.90;99.90;;;;;;4954772;28;20024;-84
2022/06/12 05:46:42;;;;;;;21.65;4.07;;;17.00;99.90;;;;;;4935487;29;20036;-84
2022/06/12 05:49:08;;;;;;;17.73;3.97;;;17.00;99.90;;;;;;4958584;28;20356;-84
2022/06/12 05:51:33;;;;;;;17.27;3.47;;;17.10;99.90;;;;;;4968520;28;20038;-84
2022/06/12 05:53:59;;;;;;;12.60;4.07;;;17.10;99.90;;;;;;4922086;29;20032;-84
2022/06/12 05:56:27;;;;;;;18.13;3.92;;;17.20;99.90;;;;;;4946727;28;20111;-84
2022/06/12 05:59:02;;;;;;;15.00;3.92;;;17.30;99.90;;;;;;4946097;28;20014;-83
2022/06/12 06:01:30;;;;;;;20.50;3.80;;;17.40;99.90;;;;;;4964879;28;20055;-83
2022/06/12 06:03:56;;;;;;;18.25;3.95;;;17.50;99.90;;;;;;4936809;29;20067;-83
2022/06/12 06:06:25;;;;;;;19.83;4.18;;;17.50;99.90;;;;;;4947300;28;20086;-83
2022/06/12 06:08:51;;;;;;;14.93;4.43;;;17.60;99.90;;;;;;4971045;28;20058;-83
2022/06/12 06:11:17;;;;;;;31.38;3.95;;;17.60;99.90;;;;;;4960098;28;20383;-83
2022/06/12 06:13:43;;;;;;;19.10;3.60;;;17.70;99.90;;;;;;4957502;28;20034;-83
2022/06/12 06:16:08;;;;;;;20.50;3.88;;;17.70;99.90;;;;;;4957245;28;20038;-83
2022/06/12 06:18:40;;;;;;;19.40;3.70;;;17.80;99.90;;;;;;4954501;28;20042;-83
2022/06/12 06:21:11;;;;;;;15.38;4.00;;;17.90;99.90;;;;;;4957284;28;20406;-83
2022/06/12 06:23:37;;;;;;;19.13;3.80;;;17.90;99.90;;;;;;4957390;28;20037;-83
2022/06/12 06:26:04;;;;;;;16.75;4.32;;;17.90;99.90;;;;;;4969682;28;20042;-83
2022/06/12 06:28:29;;;;;;;14.60;3.10;;;18.00;99.90;;;;;;4961442;28;20023;-83
2022/06/12 06:30:55;;;;;;;14.02;3.67;;;18.00;99.90;;;;;;4939239;28;20024;-83
2022/06/12 06:33:21;;;;;;;24.00;4.68;;;18.00;99.90;;;;;;4938932;28;20031;-84
2022/06/12 06:35:47;;;;;;;16.45;3.72;;;18.10;99.90;;;;;;4952658;28;20039;-84
2022/06/12 06:38:13;;;;;;;24.90;4.65;;;18.20;99.90;;;;;;4957124;28;20019;-84
2022/06/12 06:40:39;;;;;;;16.77;4.18;;;18.30;99.90;;;;;;4973121;28;20036;-84
2022/06/12 06:43:06;;;;;;;28.33;4.13;;;18.30;99.90;;;;;;4943355;28;20106;-84
2022/06/12 06:48:16;;;;;;;14.05;3.40;;;18.40;99.90;;;;;;4965225;28;20427;-84
2022/06/12 06:50:43;;;;;;;18.02;4.35;;;18.50;99.90;;;;;;4962699;28;20023;-84
2022/06/12 06:53:09;;;;;;;12.18;3.80;;;18.60;99.90;;;;;;4956563;28;20019;-84
2022/06/12 06:55:36;;;;;;;13.25;3.78;;;18.70;99.90;;;;;;4961564;28;20026;-84
2022/06/12 06:58:08;;;;;;;17.17;3.58;;;18.70;99.90;;;;;;4951191;28;20097;-83
2022/06/12 07:00:34;;;;;;;19.10;3.28;;;18.70;99.90;;;;;;4942650;29;20085;-85
2022/06/12 07:03:00;;;;;;;12.65;3.25;;;18.80;99.90;;;;;;4968050;28;20042;-85
2022/06/12 07:05:28;;;;;;;25.80;3.85;;;18.90;99.90;;;;;;4947297;28;20481;-85
2022/06/12 07:07:54;;;;;;;14.80;2.90;;;19.00;99.90;;;;;;4941815;29;20077;-84
2022/06/12 07:10:22;;;;;;;26.05;3.63;;;19.00;99.90;;;;;;4965372;28;20058;-85
2022/06/12 07:12:49;;;;;;;16.30;3.80;;;19.10;99.90;;;;;;4958940;28;20027;-84
2022/06/12 07:15:15;;;;;;;14.27;2.85;;;19.20;99.90;;;;;;4970288;28;20018;-83
2022/06/12 07:17:42;;;;;;;19.60;3.80;;;19.10;99.90;;;;;;4948188;29;20085;-84
2022/06/12 07:20:10;;;;;;;20.75;4.30;;;19.10;99.90;;;;;;4956346;29;20036;-83
2022/06/12 07:22:36;;;;;;;12.00;2.63;;;19.20;99.90;;;;;;4947812;29;20039;-83
2022/06/12 07:25:02;;;;;;;16.05;4.65;;;19.20;99.90;;;;;;4937686;28;20539;-83
2022/06/12 07:27:29;;;;;;;21.27;4.00;;;19.20;99.90;;;;;;4937540;29;20083;-83
2022/06/12 07:29:54;;;;;;;15.48;3.85;;;19.20;99.90;;;;;;4923601;29;20015;-83
2022/06/12 07:32:20;;;;;;;11.23;3.25;;;19.30;99.90;;;;;;4939467;29;20651;-84
2022/06/12 07:34:46;;;;;;;11.38;2.85;;;19.30;99.90;;;;;;4955119;28;20035;-83
2022/06/12 07:37:12;;;;;;;8.77;2.75;;;19.30;99.90;;;;;;4973350;28;20114;-83
2022/06/12 07:39:38;;;;;;;14.93;3.70;;;19.40;99.90;;;;;;4973990;28;20110;-84
2022/06/12 07:42:05;;;;;;;16.77;3.03;;;19.40;99.90;;;;;;4943426;29;20071;-84
2022/06/12 07:44:33;;;;;;;16.23;3.70;;;19.50;99.90;;;;;;4943477;28;20019;-84
2022/06/12 07:47:05;;;;;;;14.10;2.55;;;19.60;99.90;;;;;;4958196;28;20019;-83
2022/06/12 07:49:32;;;;;;;13.13;3.60;;;19.60;99.90;;;;;;4951591;29;20037;-84
2022/06/12 07:52:01;;;;;;;13.35;2.80;;;19.70;99.90;;;;;;4955872;29;20027;-83
2022/06/12 07:54:28;;;;;;;14.40;3.40;;;19.80;99.90;;;;;;4938172;29;20031;-84
2022/06/12 07:56:54;;;;;;;15.20;3.78;;;19.80;99.90;;;;;;4955447;29;20035;-84
2022/06/12 07:59:21;;;;;;;15.82;3.50;;;19.90;99.90;;;;;;4955297;29;20509;-84
2022/06/12 08:01:47;;;;;;;18.45;3.45;;;20.00;99.90;;;;;;4947878;29;20053;-83
2022/06/12 08:04:14;;;;;;;14.30;2.97;;;20.00;99.90;;;;;;4954821;29;20090;-84
2022/06/12 08:06:40;;;;;;;16.30;2.90;;;20.10;99.90;;;;;;4955094;29;20027;-84
2022/06/12 08:09:10;;;;;;;14.80;3.45;;;20.10;99.90;;;;;;4955185;29;20479;-83
2022/06/12 08:11:38;;;;;;;19.25;5.00;;;20.20;99.90;;;;;;4955169;29;20051;-84
2022/06/12 08:14:03;;;;;;;10.63;3.63;;;20.20;99.90;;;;;;4955067;29;20035;-83
2022/06/12 08:16:30;;;;;;;15.13;3.30;;;20.30;99.90;;;;;;4955101;29;20054;-83
2022/06/12 08:18:55;;;;;;;19.35;3.45;;;20.20;99.90;;;;;;4954692;29;20042;-83
2022/06/12 08:21:21;;;;;;;19.48;3.28;;;20.30;99.90;;;;;;4955018;29;20024;-84
2022/06/12 08:23:51;;;;;;;12.27;2.92;;;20.30;99.90;;;;;;4954870;29;20135;-84
2022/06/12 08:26:24;;;;;;;14.75;3.47;;;20.40;99.90;;;;;;4954925;29;20027;-84
2022/06/12 08:29:03;;;;;;;10.57;2.80;;;20.40;99.90;;;;;;4936765;29;20027;-84
2022/06/12 08:31:40;;;;;;;20.17;3.67;;;20.50;99.90;;;;;;4954807;29;20030;-84
2022/06/12 08:34:10;;;;;;;16.80;3.67;;;20.50;99.90;;;;;;4954532;29;20034;-84
2022/06/12 08:36:36;;;;;;;20.20;3.50;;;20.60;99.90;;;;;;4937300;29;20035;-84
2022/06/12 08:39:05;;;;;;;13.05;2.72;;;20.70;99.90;;;;;;4954835;29;20431;-84
2022/06/12 08:41:47;;;;;;;20.23;4.00;;;20.70;99.90;;;;;;4937405;29;20083;-84
2022/06/12 08:44:19;;;;;;;18.80;3.38;;;20.70;99.90;;;;;;4954268;29;20082;-84
2022/06/12 08:47:09;;;;;;;17.42;4.07;;;20.80;99.90;;;;;;4954935;29;20031;-85
2022/06/12 08:49:55;;;;;;;27.08;4.38;;;20.70;99.90;;;;;;4937125;29;20512;-84
2022/06/12 08:52:57;;;;;;;16.55;3.30;;;20.70;99.90;;;;;;4954460;29;20030;-84
2022/06/12 08:56:15;;;;;;;16.67;3.70;;;20.70;99.90;;;;;;4950102;29;20098;-84
2022/06/12 08:59:14;;;;;;;16.65;4.05;;;20.70;99.90;;;;;;4879736;29;20043;-84
2022/06/12 09:01:43;;;;;;;15.50;4.03;;;20.70;99.90;;;;;;4888660;29;20084;-83
2022/06/12 09:04:12;;;;;;;20.30;4.57;;;20.80;99.90;;;;;;4923578;29;20043;-84
2022/06/12 09:06:46;;;;;;;16.20;3.60;;;20.80;99.90;;;;;;4923830;29;20086;-84
2022/06/12 09:09:27;;;;;;;16.25;3.83;;;20.80;99.90;;;;;;4950152;28;20056;-84
2022/06/12 09:12:05;;;;;;;18.48;3.47;;;20.80;99.90;;;;;;4954100;29;20058;-85
2022/06/12 09:14:39;;;;;;;18.27;4.05;;;20.90;99.90;;;;;;4953874;29;20028;-85
2022/06/12 09:17:25;;;;;;;20.98;4.00;;;21.10;99.90;;;;;;4954280;29;20506;-85
2022/06/12 09:20:13;;;;;;;17.80;3.60;;;21.20;99.90;;;;;;4950552;29;20019;-84
2022/06/12 09:23:01;;;;;;;29.98;4.15;;;21.30;99.90;;;;;;4946024;28;20038;-84
2022/06/12 09:25:45;;;;;;;19.63;4.22;;;21.40;99.90;;;;;;4955754;28;20031;-84
2022/06/12 09:28:52;;;;;;;15.90;3.38;;;21.50;99.90;;;;;;4938038;29;20032;-84
2022/06/12 09:31:17;;;;;;;;;;;21.50;99.90;;;;;;4934295;29;20504;-83
2022/06/12 09:33:52;;;;;;;;;;;21.40;99.90;;;;;;4937902;29;19961;-85
2022/06/12 09:36:48;;;;;;;19.75;3.10;;;21.40;99.90;;;;;;4960945;28;19920;-84
2022/06/12 09:39:51;;;;;;;18.67;3.65;;;21.40;99.90;;;;;;4944861;29;20063;-83
2022/06/12 09:42:22;;;;;;;19.38;2.92;;;21.40;99.90;;;;;;4956638;28;20035;-84
2022/06/12 09:44:56;;;;;;;21.90;3.65;;;21.50;99.90;;;;;;4966712;28;20023;-84
2022/06/12 09:47:29;;;;;;;14.75;3.22;;;21.50;99.90;;;;;;4933071;29;20027;-83
2022/06/12 09:50:28;;;;;;;21.10;3.63;;;21.50;99.90;;;;;;4969170;28;20415;-83
2022/06/12 09:53:17;;;;;;;17.58;3.08;;;21.60;99.90;;;;;;4904360;29;20078;-83
2022/06/12 09:55:56;;;;;;;14.18;3.47;;;21.60;99.90;;;;;;4940210;29;20071;-84
2022/06/12 09:58:39;;;;;;;14.45;3.40;;;21.60;99.90;;;;;;4949608;28;20107;-84
2022/06/12 10:01:21;;;;;;;12.70;3.28;;;21.70;99.90;;;;;;4948977;29;20043;-86
2022/06/12 10:04:00;;;;;;;16.13;3.10;;;21.80;99.90;;;;;;4956628;28;20019;-85
2022/06/12 10:07:05;;;;;;;15.88;3.10;;;22.00;99.90;;;;;;4940089;29;20027;-84
2022/06/12 10:10:09;;;;;;;14.98;3.40;;;22.10;99.90;;;;;;4952087;29;20142;-84
2022/06/12 10:12:43;;;;;;;13.20;3.20;;;22.10;99.90;;;;;;4875921;29;20049;-84
2022/06/12 10:15:21;;;;;;;13.02;3.65;;;22.10;99.90;;;;;;4909994;29;20046;-86
2022/06/12 10:17:56;;;;;;;17.05;2.97;;;22.00;99.90;;;;;;4928689;29;20039;-87
2022/06/12 10:20:29;;;;;;;;;;;21.90;99.90;;;;;;4951602;29;20031;-85
2022/06/12 10:22:59;;;;;;;16.83;3.95;;;21.70;99.90;;;;;;4963136;28;19910;-84
2022/06/12 10:25:34;;;;;;;19.60;2.97;;;21.70;99.90;;;;;;4954196;28;20042;-85
2022/06/12 10:28:05;;;;;;;16.70;3.40;;;21.70;99.90;;;;;;4961560;28;20106;-85
2022/06/12 10:30:58;;;;;;;18.00;4.00;;;21.80;99.90;;;;;;4963842;28;20099;-85
2022/06/12 10:33:25;;;;;;;15.73;3.47;;;22.00;99.90;;;;;;4931120;29;20035;-84
2022/06/12 10:36:09;;;;;;;12.90;3.53;;;22.10;99.90;;;;;;4955985;29;20023;-85
2022/06/12 10:38:36;;;;;;;17.67;3.75;;;22.10;99.90;;;;;;4939606;29;20086;-84
2022/06/12 10:41:07;;;;;;;10.02;2.20;;;22.20;99.90;;;;;;4954162;29;20019;-84
2022/06/12 10:43:38;;;;;;;15.90;2.30;;;22.20;99.90;;;;;;4958273;28;20023;-85
2022/06/12 10:46:25;;;;;;;9.75;3.10;;;22.30;99.90;;;;;;4955926;28;20102;-85
2022/06/12 10:49:17;;;;;;;6.30;1.77;;;22.40;99.90;;;;;;4933675;29;20395;-84
2022/06/12 10:51:47;;;;;;;11.75;3.13;;;22.50;99.90;;;;;;4936247;29;20050;-85
2022/06/12 10:54:20;;;;;;;12.63;2.47;;;22.60;99.90;;;;;;4936776;29;20098;-84
2022/06/12 10:57:09;;;;;;;13.60;3.30;;;22.70;99.90;;;;;;4959665;28;20110;-84
2022/06/12 10:59:39;;;;;;;12.52;3.50;;;22.70;99.90;;;;;;4956574;29;20394;-84
2022/06/12 11:02:14;;;;;;;22.13;4.30;;;22.80;99.90;;;;;;4956597;29;20187;-85
2022/06/12 11:04:59;;;;;;;13.18;3.28;;;22.80;99.90;;;;;;4938392;29;20028;-84
2022/06/12 11:07:49;;;;;;;9.35;2.55;;;22.90;99.90;;;;;;4957322;28;20065;-83
2022/06/12 11:10:20;;;;;;;9.07;2.80;;;22.90;99.90;;;;;;4938540;29;20114;-83
2022/06/12 11:13:13;;;;;;;10.88;2.88;;;22.80;99.90;;;;;;4955761;29;20401;-82
2022/06/12 11:16:21;;;;;;;13.02;3.40;;;22.80;99.90;;;;;;4954390;29;20035;-81
2022/06/12 11:19:34;;;;;;;16.83;3.08;;;22.70;99.90;;;;;;4944226;28;20472;-82
2022/06/12 11:22:11;;;;;;;21.27;3.45;;;22.70;99.90;;;;;;4930385;29;20027;-83
2022/06/12 11:24:45;;;;;;;10.27;3.20;;;22.70;99.90;;;;;;4966424;28;20055;-83
2022/06/12 11:27:24;;;;;;;10.90;2.72;;;22.80;99.90;;;;;;4958114;28;20026;-83
2022/06/12 11:30:02;;;;;;;16.48;3.15;;;22.80;99.90;;;;;;4964552;28;20415;-82
2022/06/12 11:32:59;;;;;;;10.35;3.20;;;22.90;99.90;;;;;;4925785;28;20023;-83
2022/06/12 11:35:49;;;;;;;10.07;2.80;;;22.90;99.90;;;;;;4966472;28;20506;-84
2022/06/12 11:38:34;;;;;;;13.90;3.13;;;23.00;99.90;;;;;;4946008;28;20031;-83
2022/06/12 11:41:19;;;;;;;15.68;2.85;;;23.10;99.90;;;;;;4970388;28;20157;-83
2022/06/12 11:44:02;;;;;;;11.23;3.13;;;23.10;99.90;;;;;;4960864;28;20039;-84
2022/06/12 11:46:40;;;;;;;13.68;3.88;;;23.20;99.90;;;;;;4938514;29;20027;-83
2022/06/12 11:49:27;;;;;;;10.43;2.78;;;23.30;99.90;;;;;;4936761;29;20103;-84
2022/06/12 11:52:20;;;;;;;12.98;2.97;;;23.40;99.90;;;;;;4952136;28;20102;-83
2022/06/12 11:55:15;;;;;;;14.10;2.65;;;23.40;99.90;;;;;;4950819;28;20074;-84
2022/06/12 11:57:55;;;;;;;13.77;3.05;;;23.50;99.90;;;;;;4967617;28;20038;-84
2022/06/12 12:00:37;;;;;;;8.50;2.15;;;23.50;99.90;;;;;;4949373;28;20031;-84
2022/06/12 12:03:42;;;;;;;10.23;2.65;;;23.60;98.40;;;;;;4936764;29;20079;-83
2022/06/12 12:06:56;;;;;;;10.55;3.13;;;23.60;99.40;;;;;;4940021;29;20020;-83
2022/06/12 12:09:48;;;;;;;8.93;2.45;;;23.60;98.00;;;;;;4960408;28;20023;-83
2022/06/12 12:12:28;;;;;;;11.10;2.97;;;23.60;97.30;;;;;;4944620;28;20085;-83
2022/06/12 12:14:55;;;;;;;10.63;2.45;;;23.70;99.00;;;;;;4952090;29;20050;-82
2022/06/12 12:17:41;;;;;;;11.10;2.20;;;23.80;99.10;;;;;;4937722;29;20042;-83
2022/06/12 12:20:39;;;;;;;13.27;2.72;;;23.90;97.20;;;;;;4949539;29;20554;-84
2022/06/12 12:23:16;;;;;;;9.07;2.63;;;24.00;91.20;;;;;;4954795;29;20403;-83
2022/06/12 12:26:14;;;;;;;10.20;2.40;;;24.00;93.10;;;;;;4955409;29;20038;-83
2022/06/12 12:29:04;;;;;;;9.82;2.03;;;23.90;95.50;;;;;;4934808;29;20032;-84
2022/06/12 12:31:30;;;;;;;5.47;1.85;;;23.90;75.60;;;;;;4936753;29;20031;-84
2022/06/12 12:33:59;;;;;;;9.15;3.03;;;24.00;92.40;;;;;;4967866;28;20577;-84
2022/06/12 12:42:37;;;;;;;8.27;2.50;;;24.00;90.80;;;;;;4955419;28;20090;-84
2022/06/12 12:45:21;;;;;;;11.13;2.80;;;24.00;92.40;;;;;;4953105;29;20027;-83
2022/06/12 12:48:09;;;;;;;15.00;2.83;;;24.00;91.20;;;;;;4967013;28;20360;-84
2022/06/12 12:51:10;;;;;;;8.85;2.20;;;24.10;95.00;;;;;;4937953;29;20446;-83
2022/06/12 12:53:39;;;;;;;9.88;2.47;;;24.10;93.20;;;;;;4941572;28;20415;-83
2022/06/12 12:56:14;;;;;;;7.63;2.00;;;24.20;93.20;;;;;;4937871;28;20016;-83
2022/06/12 12:59:10;;;;;;;9.02;2.35;;;24.20;92.90;;;;;;4949956;28;20510;-84
2022/06/12 13:01:43;;;;;;;14.63;2.60;;;24.30;89.60;;;;;;4962866;28;20078;-83
2022/06/12 13:04:34;;;;;;;10.27;2.42;;;24.30;92.60;;;;;;4954385;29;20081;-83
2022/06/12 13:07:34;;;;;;;11.05;2.05;;;24.20;87.60;;;;;;4953727;29;20029;-83
2022/06/12 13:10:18;;;;;;;14.25;2.88;;;24.20;85.80;;;;;;4946078;28;20493;-84
2022/06/12 13:13:09;;;;;;;5.20;1.90;;;24.10;93.70;;;;;;4958536;28;20102;-85
2022/06/12 13:16:11;;;;;;;8.00;2.30;;;24.10;87.30;;;;;;4952124;28;20391;-85
2022/06/12 13:19:16;;;;;;;10.10;2.42;;;24.40;84.60;;;;;;4957240;28;20115;-85
2022/06/12 13:22:11;;;;;;;11.52;2.33;;;24.50;83.90;;;;;;4949401;28;20523;-84
2022/06/12 13:24:38;;;;;;;8.93;2.00;;;24.60;71.10;;;;;;4956206;28;20035;-84
2022/06/12 13:27:24;;;;;;;8.70;2.17;;;24.50;65.90;;;;;;4936866;29;20031;-85
2022/06/12 13:29:58;;;;;;;11.85;2.38;;;24.50;63.90;;;;;;4963078;28;20031;-84
2022/06/12 13:32:24;;;;;;;8.32;2.45;;;24.30;63.40;;;;;;4944343;28;20078;-84
2022/06/12 13:35:20;;;;;;;9.32;2.10;;;24.20;62.90;;;;;;4953900;28;20113;-85
2022/06/12 13:37:48;;;;;;;12.05;3.05;;;24.30;67.30;;;;;;4950453;28;20038;-86
2022/06/12 13:40:27;;;;;;;7.82;2.35;;;24.40;63.30;;;;;;4953633;29;20118;-84
2022/06/12 13:43:19;;;;;;;9.57;2.28;;;24.50;67.60;;;;;;4954337;29;20411;-85
2022/06/12 13:45:54;;;;;;;12.00;2.58;;;24.50;66.70;;;;;;4948614;29;20093;-86
2022/06/12 13:48:26;;;;;;;11.13;2.10;;;24.60;60.60;;;;;;4938913;28;20023;-85
2022/06/12 13:51:12;;;;;;;13.48;2.35;;;24.50;59.90;;;;;;4938241;29;20031;-86
2022/06/12 13:54:05;;;;;;;8.27;2.10;;;24.50;64.60;;;;;;4966203;28;20054;-85
2022/06/12 13:56:31;;;;;;;8.68;2.47;;;24.50;63.70;;;;;;4958120;28;20394;-85